sensor_id;sensor_type;location;lat;lon;timestamp;temperature;humidity
54796;DHT22;40693;43.884;20.340;2022-11-23T00:01:18;256.40;2252.80
54796;DHT22;40693;43.884;20.340;2022-11-23T00:03:46;256.40;2252.80
54796;DHT22;40693;43.884;20.340;2022-11-23T00:06:12;256.40;2252.80
54796;DHT22;40693;43.884;20.340;2022-11-23T00:08:39;256.40;2252.80
54796;DHT22;40693;43.884;20.340;2022-11-23T00:11:04;256.40;2252.80
54796;DHT22;40693;43.884;20.340;2022-11-23T00:13:30;256.40;2252.80
54796;DHT22;40693;43.884;20.340;2022-11-23T00:15:56;256.40;2252.80
54796;DHT22;40693;43.884;20.340;2022-11-23T00:18:22;256.30;2252.80
54796;DHT22;40693;43.884;20.340;2022-11-23T00:20:48;256.30;2252.80
54796;DHT22;40693;43.884;20.340;2022-11-23T00:23:14;256.30;2252.80
54796;DHT22;40693;43.884;20.340;2022-11-23T00:25:39;256.30;2252.80
54796;DHT22;40693;43.884;20.340;2022-11-23T00:28:05;256.30;2252.80
54796;DHT22;40693;43.884;20.340;2022-11-23T00:30:32;256.30;2252.80
54796;DHT22;40693;43.884;20.340;2022-11-23T00:32:57;256.30;2252.80
54796;DHT22;40693;43.884;20.340;2022-11-23T00:35:23;256.20;2252.80
54796;DHT22;40693;43.884;20.340;2022-11-23T00:37:49;256.20;2252.80
54796;DHT22;40693;43.884;20.340;2022-11-23T00:40:15;256.20;2252.80
54796;DHT22;40693;43.884;20.340;2022-11-23T00:42:41;256.20;2252.80
54796;DHT22;40693;43.884;20.340;2022-11-23T00:45:07;256.20;2252.80
54796;DHT22;40693;43.884;20.340;2022-11-23T00:47:33;256.20;2252.80
54796;DHT22;40693;43.884;20.340;2022-11-23T00:49:58;256.20;2252.80
54796;DHT22;40693;43.884;20.340;2022-11-23T00:52:24;256.20;2252.80
54796;DHT22;40693;43.884;20.340;2022-11-23T00:54:50;256.20;2252.80
54796;DHT22;40693;43.884;20.340;2022-11-23T00:57:16;256.20;2252.80
54796;DHT22;40693;43.884;20.340;2022-11-23T00:59:41;256.20;2252.80
54796;DHT22;40693;43.884;20.340;2022-11-23T01:02:07;256.20;2252.80
54796;DHT22;40693;43.884;20.340;2022-11-23T01:04:33;256.30;2252.80
54796;DHT22;40693;43.884;20.340;2022-11-23T01:06:59;256.30;2252.80
54796;DHT22;40693;43.884;20.340;2022-11-23T01:09:24;256.30;2252.80
54796;DHT22;40693;43.884;20.340;2022-11-23T01:11:54;256.30;2252.80
54796;DHT22;40693;43.884;20.340;2022-11-23T01:14:21;256.30;2252.80
54796;DHT22;40693;43.884;20.340;2022-11-23T01:16:47;256.20;2252.80
54796;DHT22;40693;43.884;20.340;2022-11-23T01:19:15;256.40;2252.80
54796;DHT22;40693;43.884;20.340;2022-11-23T01:21:42;256.20;2252.80
54796;DHT22;40693;43.884;20.340;2022-11-23T01:24:21;256.10;2252.80
54796;DHT22;40693;43.884;20.340;2022-11-23T01:26:54;256.10;2252.80
54796;DHT22;40693;43.884;20.340;2022-11-23T01:29:20;256.10;2252.80
54796;DHT22;40693;43.884;20.340;2022-11-23T01:31:47;256.10;2252.80
54796;DHT22;40693;43.884;20.340;2022-11-23T01:34:13;256.10;2252.80
54796;DHT22;40693;43.884;20.340;2022-11-23T01:36:40;256.10;2252.80
54796;DHT22;40693;43.884;20.340;2022-11-23T01:39:06;256.00;2252.80
54796;DHT22;40693;43.884;20.340;2022-11-23T01:41:35;256.00;2252.80
54796;DHT22;40693;43.884;20.340;2022-11-23T01:44:28;256.00;2252.80
54796;DHT22;40693;43.884;20.340;2022-11-23T01:46:57;256.00;2252.80
54796;DHT22;40693;43.884;20.340;2022-11-23T01:49:24;256.00;2252.80
54796;DHT22;40693;43.884;20.340;2022-11-23T01:51:53;256.00;2252.80
54796;DHT22;40693;43.884;20.340;2022-11-23T01:54:26;256.00;2252.80
54796;DHT22;40693;43.884;20.340;2022-11-23T01:56:56;256.00;2252.80
54796;DHT22;40693;43.884;20.340;2022-11-23T01:59:24;231.20;2252.80
54796;DHT22;40693;43.884;20.340;2022-11-23T02:01:51;231.20;2252.80
54796;DHT22;40693;43.884;20.340;2022-11-23T02:04:22;231.10;2252.80
54796;DHT22;40693;43.884;20.340;2022-11-23T02:06:49;231.10;2252.80
54796;DHT22;40693;43.884;20.340;2022-11-23T02:09:16;231.10;2252.80
54796;DHT22;40693;43.884;20.340;2022-11-23T02:11:43;231.10;2252.80
54796;DHT22;40693;43.884;20.340;2022-11-23T02:14:09;231.00;2252.80
54796;DHT22;40693;43.884;20.340;2022-11-23T02:16:36;231.00;2252.80
54796;DHT22;40693;43.884;20.340;2022-11-23T02:19:04;231.00;2252.80
54796;DHT22;40693;43.884;20.340;2022-11-23T02:21:31;231.00;2252.80
54796;DHT22;40693;43.884;20.340;2022-11-23T02:24:32;231.00;2252.80
54796;DHT22;40693;43.884;20.340;2022-11-23T02:27:01;231.00;2252.80
54796;DHT22;40693;43.884;20.340;2022-11-23T02:29:28;230.90;2252.80
54796;DHT22;40693;43.884;20.340;2022-11-23T02:31:54;230.90;2252.80
54796;DHT22;40693;43.884;20.340;2022-11-23T02:34:20;230.90;2252.80
54796;DHT22;40693;43.884;20.340;2022-11-23T02:36:47;230.90;2252.80
54796;DHT22;40693;43.884;20.340;2022-11-23T02:39:29;230.90;2252.80
54796;DHT22;40693;43.884;20.340;2022-11-23T02:41:55;230.80;2252.80
54796;DHT22;40693;43.884;20.340;2022-11-23T02:47:09;230.60;2252.80
54796;DHT22;40693;43.884;20.340;2022-11-23T02:49:35;230.60;2252.80
54796;DHT22;40693;43.884;20.340;2022-11-23T02:52:02;230.50;2252.80
54796;DHT22;40693;43.884;20.340;2022-11-23T02:54:28;230.50;2252.80
54796;DHT22;40693;43.884;20.340;2022-11-23T02:56:54;230.50;2252.80
54796;DHT22;40693;43.884;20.340;2022-11-23T02:59:20;230.50;2252.80
54796;DHT22;40693;43.884;20.340;2022-11-23T03:01:46;230.50;2252.80
54796;DHT22;40693;43.884;20.340;2022-11-23T03:04:12;230.50;2252.80
54796;DHT22;40693;43.884;20.340;2022-11-23T03:06:38;230.60;2252.80
54796;DHT22;40693;43.884;20.340;2022-11-23T03:09:04;230.50;2252.80
54796;DHT22;40693;43.884;20.340;2022-11-23T03:11:31;230.60;2252.80
54796;DHT22;40693;43.884;20.340;2022-11-23T03:13:57;230.70;2252.80
54796;DHT22;40693;43.884;20.340;2022-11-23T03:16:23;230.90;2252.80
54796;DHT22;40693;43.884;20.340;2022-11-23T03:18:49;231.10;2252.80
54796;DHT22;40693;43.884;20.340;2022-11-23T03:21:15;231.20;2252.80
54796;DHT22;40693;43.884;20.340;2022-11-23T03:23:41;231.20;2252.80
54796;DHT22;40693;43.884;20.340;2022-11-23T03:26:07;231.20;2252.80
54796;DHT22;40693;43.884;20.340;2022-11-23T03:28:33;231.20;2252.80
54796;DHT22;40693;43.884;20.340;2022-11-23T03:30:58;231.20;2252.80
54796;DHT22;40693;43.884;20.340;2022-11-23T03:33:24;231.30;2252.80
54796;DHT22;40693;43.884;20.340;2022-11-23T03:35:50;231.30;2252.80
54796;DHT22;40693;43.884;20.340;2022-11-23T03:38:16;256.00;2252.80
54796;DHT22;40693;43.884;20.340;2022-11-23T03:40:44;256.00;2252.80
54796;DHT22;40693;43.884;20.340;2022-11-23T03:43:13;256.00;2252.80
54796;DHT22;40693;43.884;20.340;2022-11-23T03:45:40;256.10;2252.80
54796;DHT22;40693;43.884;20.340;2022-11-23T03:48:06;256.10;2252.80
54796;DHT22;40693;43.884;20.340;2022-11-23T03:50:32;256.00;2252.80
54796;DHT22;40693;43.884;20.340;2022-11-23T03:52:58;256.10;2252.80
54796;DHT22;40693;43.884;20.340;2022-11-23T03:55:25;256.20;2252.80
54796;DHT22;40693;43.884;20.340;2022-11-23T03:57:51;256.20;2252.80
54796;DHT22;40693;43.884;20.340;2022-11-23T04:00:19;256.20;2252.80
54796;DHT22;40693;43.884;20.340;2022-11-23T04:02:45;256.20;2252.80
54796;DHT22;40693;43.884;20.340;2022-11-23T04:05:11;256.20;2252.80
54796;DHT22;40693;43.884;20.340;2022-11-23T04:07:36;256.20;2252.80
54796;DHT22;40693;43.884;20.340;2022-11-23T04:10:02;256.20;2252.80
54796;DHT22;40693;43.884;20.340;2022-11-23T04:12:28;256.20;2252.80
54796;DHT22;40693;43.884;20.340;2022-11-23T04:14:54;256.20;2252.80
54796;DHT22;40693;43.884;20.340;2022-11-23T04:17:20;256.20;2252.80
54796;DHT22;40693;43.884;20.340;2022-11-23T04:19:45;256.20;2252.80
54796;DHT22;40693;43.884;20.340;2022-11-23T04:22:11;256.30;2252.80
54796;DHT22;40693;43.884;20.340;2022-11-23T04:24:37;256.20;2252.80
54796;DHT22;40693;43.884;20.340;2022-11-23T04:27:03;256.20;2252.80
54796;DHT22;40693;43.884;20.340;2022-11-23T04:29:28;256.20;2252.80
54796;DHT22;40693;43.884;20.340;2022-11-23T04:31:54;256.20;2252.80
54796;DHT22;40693;43.884;20.340;2022-11-23T04:34:20;256.20;2252.80
54796;DHT22;40693;43.884;20.340;2022-11-23T04:36:45;256.20;2252.80
54796;DHT22;40693;43.884;20.340;2022-11-23T04:39:12;256.20;2252.80
54796;DHT22;40693;43.884;20.340;2022-11-23T04:41:38;256.30;2252.80
54796;DHT22;40693;43.884;20.340;2022-11-23T04:44:04;256.20;2252.80
54796;DHT22;40693;43.884;20.340;2022-11-23T04:46:30;256.30;2252.80
54796;DHT22;40693;43.884;20.340;2022-11-23T04:48:56;256.10;2252.80
54796;DHT22;40693;43.884;20.340;2022-11-23T04:51:22;231.30;2252.80
54796;DHT22;40693;43.884;20.340;2022-11-23T04:53:48;231.10;2252.80
54796;DHT22;40693;43.884;20.340;2022-11-23T04:56:14;230.90;2252.80
54796;DHT22;40693;43.884;20.340;2022-11-23T04:58:39;230.90;2252.80
54796;DHT22;40693;43.884;20.340;2022-11-23T05:01:05;230.90;2252.80
54796;DHT22;40693;43.884;20.340;2022-11-23T05:03:31;230.90;2252.80
54796;DHT22;40693;43.884;20.340;2022-11-23T05:06:00;230.80;2252.80
54796;DHT22;40693;43.884;20.340;2022-11-23T05:08:27;230.70;2252.80
54796;DHT22;40693;43.884;20.340;2022-11-23T05:10:53;230.70;2252.80
54796;DHT22;40693;43.884;20.340;2022-11-23T05:13:19;230.60;2252.80
54796;DHT22;40693;43.884;20.340;2022-11-23T05:15:44;230.60;2252.80
54796;DHT22;40693;43.884;20.340;2022-11-23T05:18:11;230.50;2252.80
54796;DHT22;40693;43.884;20.340;2022-11-23T05:20:37;230.60;2252.80
54796;DHT22;40693;43.884;20.340;2022-11-23T05:23:03;230.50;2252.80
54796;DHT22;40693;43.884;20.340;2022-11-23T05:25:29;230.50;2252.80
54796;DHT22;40693;43.884;20.340;2022-11-23T05:27:55;230.50;2252.80
54796;DHT22;40693;43.884;20.340;2022-11-23T05:30:21;205.70;2252.80
54796;DHT22;40693;43.884;20.340;2022-11-23T05:32:47;230.40;2252.80
54796;DHT22;40693;43.884;20.340;2022-11-23T05:35:12;205.70;2252.80
54796;DHT22;40693;43.884;20.340;2022-11-23T05:37:39;205.70;2252.80
54796;DHT22;40693;43.884;20.340;2022-11-23T05:40:06;230.40;2252.80
54796;DHT22;40693;43.884;20.340;2022-11-23T05:42:32;205.50;2252.80
54796;DHT22;40693;43.884;20.340;2022-11-23T05:44:58;230.40;2252.80
54796;DHT22;40693;43.884;20.340;2022-11-23T05:47:24;205.70;2252.80
54796;DHT22;40693;43.884;20.340;2022-11-23T05:49:49;205.70;2252.80
54796;DHT22;40693;43.884;20.340;2022-11-23T05:52:16;205.70;2252.80
54796;DHT22;40693;43.884;20.340;2022-11-23T05:54:42;205.70;2252.80
54796;DHT22;40693;43.884;20.340;2022-11-23T05:57:08;205.70;2252.80
54796;DHT22;40693;43.884;20.340;2022-11-23T05:59:34;230.40;2252.80
54796;DHT22;40693;43.884;20.340;2022-11-23T06:02:00;230.40;2252.80
54796;DHT22;40693;43.884;20.340;2022-11-23T06:04:26;230.40;2252.80
54796;DHT22;40693;43.884;20.340;2022-11-23T06:06:51;230.50;2252.80
54796;DHT22;40693;43.884;20.340;2022-11-23T06:09:19;230.50;2252.80
54796;DHT22;40693;43.884;20.340;2022-11-23T06:11:45;230.50;2252.80
54796;DHT22;40693;43.884;20.340;2022-11-23T06:14:12;230.50;2252.80
54796;DHT22;40693;43.884;20.340;2022-11-23T06:16:38;230.50;2252.80
54796;DHT22;40693;43.884;20.340;2022-11-23T06:19:04;230.60;2252.80
54796;DHT22;40693;43.884;20.340;2022-11-23T06:21:30;230.60;2252.80
54796;DHT22;40693;43.884;20.340;2022-11-23T06:23:56;230.50;2252.80
54796;DHT22;40693;43.884;20.340;2022-11-23T06:26:22;230.50;2252.80
54796;DHT22;40693;43.884;20.340;2022-11-23T06:28:47;230.50;2252.80
54796;DHT22;40693;43.884;20.340;2022-11-23T06:31:13;230.40;2252.80
54796;DHT22;40693;43.884;20.340;2022-11-23T06:33:39;230.50;2252.80
54796;DHT22;40693;43.884;20.340;2022-11-23T06:36:05;230.50;2252.80
54796;DHT22;40693;43.884;20.340;2022-11-23T06:38:31;230.80;2252.80
54796;DHT22;40693;43.884;20.340;2022-11-23T06:40:59;230.50;2252.80
54796;DHT22;40693;43.884;20.340;2022-11-23T06:43:26;230.40;2252.80
54796;DHT22;40693;43.884;20.340;2022-11-23T06:45:53;205.70;2252.80
54796;DHT22;40693;43.884;20.340;2022-11-23T06:48:19;205.70;2252.80
54796;DHT22;40693;43.884;20.340;2022-11-23T06:50:45;205.70;2252.80
54796;DHT22;40693;43.884;20.340;2022-11-23T06:53:10;230.40;2252.80
54796;DHT22;40693;43.884;20.340;2022-11-23T06:55:39;230.40;2252.80
54796;DHT22;40693;43.884;20.340;2022-11-23T06:58:05;230.40;2252.80
54796;DHT22;40693;43.884;20.340;2022-11-23T07:00:32;230.50;2252.80
54796;DHT22;40693;43.884;20.340;2022-11-23T07:02:58;230.50;2252.80
54796;DHT22;40693;43.884;20.340;2022-11-23T07:05:25;230.50;2252.80
54796;DHT22;40693;43.884;20.340;2022-11-23T07:07:51;230.40;2252.80
54796;DHT22;40693;43.884;20.340;2022-11-23T07:10:17;230.50;2252.80
54796;DHT22;40693;43.884;20.340;2022-11-23T07:12:43;230.50;2252.80
54796;DHT22;40693;43.884;20.340;2022-11-23T07:15:10;230.50;2252.80
54796;DHT22;40693;43.884;20.340;2022-11-23T07:17:40;231.00;2252.80
54796;DHT22;40693;43.884;20.340;2022-11-23T07:20:08;230.70;2252.80
54796;DHT22;40693;43.884;20.340;2022-11-23T07:22:34;230.80;2252.80
54796;DHT22;40693;43.884;20.340;2022-11-23T07:25:01;230.80;2252.80
54796;DHT22;40693;43.884;20.340;2022-11-23T07:27:27;230.90;2252.80
54796;DHT22;40693;43.884;20.340;2022-11-23T07:29:52;230.90;2252.80
54796;DHT22;40693;43.884;20.340;2022-11-23T07:32:20;230.90;2252.80
54796;DHT22;40693;43.884;20.340;2022-11-23T07:34:46;230.90;2252.80
54796;DHT22;40693;43.884;20.340;2022-11-23T07:37:12;230.90;2252.80
54796;DHT22;40693;43.884;20.340;2022-11-23T07:39:38;231.00;2252.80
54796;DHT22;40693;43.884;20.340;2022-11-23T07:42:04;231.10;2252.80
54796;DHT22;40693;43.884;20.340;2022-11-23T07:44:29;231.10;2252.80
54796;DHT22;40693;43.884;20.340;2022-11-23T07:46:55;231.20;2252.80
54796;DHT22;40693;43.884;20.340;2022-11-23T07:49:21;231.20;2252.80
54796;DHT22;40693;43.884;20.340;2022-11-23T07:51:47;231.20;2252.80
54796;DHT22;40693;43.884;20.340;2022-11-23T07:54:12;231.20;2252.80
54796;DHT22;40693;43.884;20.340;2022-11-23T07:56:38;231.30;2252.80
54796;DHT22;40693;43.884;20.340;2022-11-23T07:59:04;256.00;2252.80
54796;DHT22;40693;43.884;20.340;2022-11-23T08:01:30;256.00;2252.80
54796;DHT22;40693;43.884;20.340;2022-11-23T08:03:58;256.10;2252.80
54796;DHT22;40693;43.884;20.340;2022-11-23T08:06:24;256.20;2252.80
54796;DHT22;40693;43.884;20.340;2022-11-23T08:08:49;256.20;2252.80
54796;DHT22;40693;43.884;20.340;2022-11-23T08:11:15;256.20;2252.80
54796;DHT22;40693;43.884;20.340;2022-11-23T08:13:45;256.30;2252.80
54796;DHT22;40693;43.884;20.340;2022-11-23T08:16:10;256.30;2252.80
54796;DHT22;40693;43.884;20.340;2022-11-23T08:18:36;256.30;2252.80
54796;DHT22;40693;43.884;20.340;2022-11-23T08:21:02;256.40;2252.80
54796;DHT22;40693;43.884;20.340;2022-11-23T08:23:28;256.40;2252.80
54796;DHT22;40693;43.884;20.340;2022-11-23T08:25:54;256.50;2252.80
54796;DHT22;40693;43.884;20.340;2022-11-23T08:28:20;256.60;2252.80
54796;DHT22;40693;43.884;20.340;2022-11-23T08:30:47;256.70;2252.80
54796;DHT22;40693;43.884;20.340;2022-11-23T08:33:13;256.90;2252.80
54796;DHT22;40693;43.884;20.340;2022-11-23T08:35:40;281.60;2278.40
54796;DHT22;40693;43.884;20.340;2022-11-23T08:38:07;281.70;2278.40
54796;DHT22;40693;43.884;20.340;2022-11-23T08:40:34;281.90;2278.40
54796;DHT22;40693;43.884;20.340;2022-11-23T08:42:59;281.90;2278.40
54796;DHT22;40693;43.884;20.340;2022-11-23T08:45:25;282.00;2278.40
54796;DHT22;40693;43.884;20.340;2022-11-23T08:47:51;282.00;2278.40
54796;DHT22;40693;43.884;20.340;2022-11-23T08:50:18;282.20;2278.40
54796;DHT22;40693;43.884;20.340;2022-11-23T08:52:44;282.30;2278.40
54796;DHT22;40693;43.884;20.340;2022-11-23T08:55:09;282.40;2278.40
54796;DHT22;40693;43.884;20.340;2022-11-23T08:57:35;282.40;2278.40
54796;DHT22;40693;43.884;20.340;2022-11-23T09:00:02;282.50;2278.40
54796;DHT22;40693;43.884;20.340;2022-11-23T09:02:28;282.50;2278.40
54796;DHT22;40693;43.884;20.340;2022-11-23T09:04:53;307.20;2304.00
54796;DHT22;40693;43.884;20.340;2022-11-23T09:07:19;307.30;2304.00
54796;DHT22;40693;43.884;20.340;2022-11-23T09:09:45;307.30;2304.00
54796;DHT22;40693;43.884;20.340;2022-11-23T09:12:10;307.40;2304.00
54796;DHT22;40693;43.884;20.340;2022-11-23T09:14:37;307.50;2304.00
54796;DHT22;40693;43.884;20.340;2022-11-23T09:17:03;307.60;2304.00
54796;DHT22;40693;43.884;20.340;2022-11-23T09:19:29;307.60;2304.00
54796;DHT22;40693;43.884;20.340;2022-11-23T09:21:54;307.60;2304.00
54796;DHT22;40693;43.884;20.340;2022-11-23T09:24:20;307.60;2304.00
54796;DHT22;40693;43.884;20.340;2022-11-23T09:26:47;307.60;2304.00
54796;DHT22;40693;43.884;20.340;2022-11-23T09:29:12;307.60;2304.00
54796;DHT22;40693;43.884;20.340;2022-11-23T09:31:38;307.70;2304.00
54796;DHT22;40693;43.884;20.340;2022-11-23T09:34:04;307.70;2304.00
54796;DHT22;40693;43.884;20.340;2022-11-23T09:36:30;307.70;2304.00
54796;DHT22;40693;43.884;20.340;2022-11-23T09:38:56;307.70;2304.00
54796;DHT22;40693;43.884;20.340;2022-11-23T09:42:05;307.80;2304.00
54796;DHT22;40693;43.884;20.340;2022-11-23T09:52:34;307.80;2304.00
54796;DHT22;40693;43.884;20.340;2022-11-23T09:55:08;307.80;2304.00
54796;DHT22;40693;43.884;20.340;2022-11-23T09:57:36;307.80;2304.00
54796;DHT22;40693;43.884;20.340;2022-11-23T10:00:09;307.80;2304.00
54796;DHT22;40693;43.884;20.340;2022-11-23T10:02:40;307.80;2304.00
54796;DHT22;40693;43.884;20.340;2022-11-23T10:05:06;307.80;2304.00
54796;DHT22;40693;43.884;20.340;2022-11-23T10:10:38;307.80;2304.00
54796;DHT22;40693;43.884;20.340;2022-11-23T10:15:50;307.80;2304.00
54796;DHT22;40693;43.884;20.340;2022-11-23T10:26:36;308.00;2304.00
54796;DHT22;40693;43.884;20.340;2022-11-23T10:29:16;308.10;2304.00
54796;DHT22;40693;43.884;20.340;2022-11-23T10:31:47;308.10;2304.00
54796;DHT22;40693;43.884;20.340;2022-11-23T10:34:16;332.80;2329.60
54796;DHT22;40693;43.884;20.340;2022-11-23T10:36:44;332.80;2329.60
54796;DHT22;40693;43.884;20.340;2022-11-23T10:41:41;332.90;2329.60
54796;DHT22;40693;43.884;20.340;2022-11-23T10:44:21;333.00;2329.60
54796;DHT22;40693;43.884;20.340;2022-11-23T10:46:50;333.00;2329.60
54796;DHT22;40693;43.884;20.340;2022-11-23T10:49:22;333.10;2329.60
54796;DHT22;40693;43.884;20.340;2022-11-23T10:51:58;333.20;2329.60
54796;DHT22;40693;43.884;20.340;2022-11-23T11:00:16;333.20;2329.60
54796;DHT22;40693;43.884;20.340;2022-11-23T11:07:58;333.10;2329.60
54796;DHT22;40693;43.884;20.340;2022-11-23T11:10:55;333.10;2329.60
54796;DHT22;40693;43.884;20.340;2022-11-23T11:13:37;333.10;2329.60
54796;DHT22;40693;43.884;20.340;2022-11-23T11:16:16;333.10;2329.60
54796;DHT22;40693;43.884;20.340;2022-11-23T11:18:42;333.10;2329.60
54796;DHT22;40693;43.884;20.340;2022-11-23T11:21:32;333.20;2329.60
54796;DHT22;40693;43.884;20.340;2022-11-23T11:24:04;333.20;2329.60
54796;DHT22;40693;43.884;20.340;2022-11-23T11:26:33;333.30;2329.60
54796;DHT22;40693;43.884;20.340;2022-11-23T11:29:02;333.20;2329.60
54796;DHT22;40693;43.884;20.340;2022-11-23T11:31:54;333.20;2329.60
54796;DHT22;40693;43.884;20.340;2022-11-23T11:34:29;333.20;2329.60
54796;DHT22;40693;43.884;20.340;2022-11-23T11:37:13;333.20;2329.60
54796;DHT22;40693;43.884;20.340;2022-11-23T11:42:42;333.20;2329.60
54796;DHT22;40693;43.884;20.340;2022-11-23T11:45:17;333.30;2329.60
54796;DHT22;40693;43.884;20.340;2022-11-23T11:47:50;333.40;2329.60
54796;DHT22;40693;43.884;20.340;2022-11-23T11:50:35;333.40;2329.60
54796;DHT22;40693;43.884;20.340;2022-11-23T11:53:10;333.40;2329.60
54796;DHT22;40693;43.884;20.340;2022-11-23T11:58:16;333.30;2329.60
54796;DHT22;40693;43.884;20.340;2022-11-23T12:00:45;333.40;2329.60
54796;DHT22;40693;43.884;20.340;2022-11-23T12:06:10;333.40;2329.60
54796;DHT22;40693;43.884;20.340;2022-11-23T12:09:09;333.40;2329.60
54796;DHT22;40693;43.884;20.340;2022-11-23T12:11:37;333.40;2329.60
54796;DHT22;40693;43.884;20.340;2022-11-23T12:14:04;333.40;2329.60
54796;DHT22;40693;43.884;20.340;2022-11-23T12:17:01;333.50;2329.60
54796;DHT22;40693;43.884;20.340;2022-11-23T12:19:43;333.40;2329.60
54796;DHT22;40693;43.884;20.340;2022-11-23T12:35:52;333.20;2329.60
54796;DHT22;40693;43.884;20.340;2022-11-23T12:38:59;333.30;2329.60
54796;DHT22;40693;43.884;20.340;2022-11-23T12:41:38;333.30;2329.60
54796;DHT22;40693;43.884;20.340;2022-11-23T12:44:32;333.30;2329.60
54796;DHT22;40693;43.884;20.340;2022-11-23T12:53:36;333.30;2329.60
54796;DHT22;40693;43.884;20.340;2022-11-23T12:58:43;333.20;2329.60
54796;DHT22;40693;43.884;20.340;2022-11-23T13:01:48;333.20;2329.60
54796;DHT22;40693;43.884;20.340;2022-11-23T13:23:38;333.20;2329.60
54796;DHT22;40693;43.884;20.340;2022-11-23T13:26:20;333.30;2329.60
54796;DHT22;40693;43.884;20.340;2022-11-23T13:28:48;333.30;2329.60
54796;DHT22;40693;43.884;20.340;2022-11-23T13:33:41;333.40;2329.60
54796;DHT22;40693;43.884;20.340;2022-11-23T13:36:11;333.40;2329.60
54796;DHT22;40693;43.884;20.340;2022-11-23T13:38:38;333.40;2329.60
54796;DHT22;40693;43.884;20.340;2022-11-23T13:44:25;333.40;2329.60
54796;DHT22;40693;43.884;20.340;2022-11-23T13:49:36;333.40;2329.60
54796;DHT22;40693;43.884;20.340;2022-11-23T13:52:27;333.40;2329.60
54796;DHT22;40693;43.884;20.340;2022-11-23T13:57:24;333.10;2329.60
54796;DHT22;40693;43.884;20.340;2022-11-23T13:59:50;333.20;2329.60
54796;DHT22;40693;43.884;20.340;2022-11-23T14:02:28;333.10;2329.60
54796;DHT22;40693;43.884;20.340;2022-11-23T14:08:00;332.90;2329.60
54796;DHT22;40693;43.884;20.340;2022-11-23T14:10:29;308.10;2304.00
54796;DHT22;40693;43.884;20.340;2022-11-23T14:13:01;308.00;2304.00
54796;DHT22;40693;43.884;20.340;2022-11-23T14:15:34;307.90;2304.00
54796;DHT22;40693;43.884;20.340;2022-11-23T14:26:32;307.70;2304.00
54796;DHT22;40693;43.884;20.340;2022-11-23T14:42:55;307.50;2304.00
54796;DHT22;40693;43.884;20.340;2022-11-23T14:45:29;307.50;2304.00
54796;DHT22;40693;43.884;20.340;2022-11-23T14:47:56;307.40;2304.00
54796;DHT22;40693;43.884;20.340;2022-11-23T14:50:27;307.30;2304.00
54796;DHT22;40693;43.884;20.340;2022-11-23T14:52:54;307.30;2304.00
54796;DHT22;40693;43.884;20.340;2022-11-23T14:55:23;307.30;2304.00
54796;DHT22;40693;43.884;20.340;2022-11-23T14:57:55;282.50;2278.40
54796;DHT22;40693;43.884;20.340;2022-11-23T15:00:40;282.50;2278.40
54796;DHT22;40693;43.884;20.340;2022-11-23T15:03:12;282.40;2278.40
54796;DHT22;40693;43.884;20.340;2022-11-23T15:05:43;282.40;2278.40
54796;DHT22;40693;43.884;20.340;2022-11-23T15:11:02;282.20;2278.40
54796;DHT22;40693;43.884;20.340;2022-11-23T15:13:33;282.10;2278.40
54796;DHT22;40693;43.884;20.340;2022-11-23T15:16:11;282.10;2278.40
54796;DHT22;40693;43.884;20.340;2022-11-23T15:18:37;282.20;2278.40
54796;DHT22;40693;43.884;20.340;2022-11-23T15:23:52;282.20;2278.40
54796;DHT22;40693;43.884;20.340;2022-11-23T15:26:24;282.20;2278.40
54796;DHT22;40693;43.884;20.340;2022-11-23T15:28:50;282.20;2278.40
54796;DHT22;40693;43.884;20.340;2022-11-23T15:31:32;282.10;2278.40
54796;DHT22;40693;43.884;20.340;2022-11-23T15:34:12;282.00;2278.40
54796;DHT22;40693;43.884;20.340;2022-11-23T15:36:38;282.00;2278.40
54796;DHT22;40693;43.884;20.340;2022-11-23T15:39:05;282.00;2278.40
54796;DHT22;40693;43.884;20.340;2022-11-23T15:41:37;282.00;2278.40
54796;DHT22;40693;43.884;20.340;2022-11-23T15:44:15;282.00;2278.40
54796;DHT22;40693;43.884;20.340;2022-11-23T15:46:44;282.00;2278.40
54796;DHT22;40693;43.884;20.340;2022-11-23T15:49:13;282.00;2278.40
54796;DHT22;40693;43.884;20.340;2022-11-23T15:51:41;282.00;2278.40
54796;DHT22;40693;43.884;20.340;2022-11-23T15:54:22;281.80;2278.40
54796;DHT22;40693;43.884;20.340;2022-11-23T15:56:52;281.60;2278.40
54796;DHT22;40693;43.884;20.340;2022-11-23T15:59:39;281.60;2278.40
54796;DHT22;40693;43.884;20.340;2022-11-23T16:02:14;256.90;2252.80
54796;DHT22;40693;43.884;20.340;2022-11-23T16:04:41;256.80;2252.80
54796;DHT22;40693;43.884;20.340;2022-11-23T16:09:46;256.80;2252.80
54796;DHT22;40693;43.884;20.340;2022-11-23T16:12:26;256.80;2252.80
54796;DHT22;40693;43.884;20.340;2022-11-23T16:14:53;256.80;2252.80
54796;DHT22;40693;43.884;20.340;2022-11-23T16:17:24;256.80;2252.80
54796;DHT22;40693;43.884;20.340;2022-11-23T16:19:55;256.80;2252.80
54796;DHT22;40693;43.884;20.340;2022-11-23T16:22:30;256.60;2252.80
54796;DHT22;40693;43.884;20.340;2022-11-23T16:27:29;256.50;2252.80
54796;DHT22;40693;43.884;20.340;2022-11-23T16:29:55;256.40;2252.80
54796;DHT22;40693;43.884;20.340;2022-11-23T16:32:26;256.40;2252.80
54796;DHT22;40693;43.884;20.340;2022-11-23T16:34:53;256.40;2252.80
54796;DHT22;40693;43.884;20.340;2022-11-23T16:37:19;256.60;2252.80
54796;DHT22;40693;43.884;20.340;2022-11-23T16:39:45;256.40;2252.80
54796;DHT22;40693;43.884;20.340;2022-11-23T16:42:13;256.40;2252.80
54796;DHT22;40693;43.884;20.340;2022-11-23T16:44:40;256.50;2252.80
54796;DHT22;40693;43.884;20.340;2022-11-23T16:47:21;256.40;2252.80
54796;DHT22;40693;43.884;20.340;2022-11-23T16:49:48;256.40;2252.80
54796;DHT22;40693;43.884;20.340;2022-11-23T16:52:14;256.40;2252.80
54796;DHT22;40693;43.884;20.340;2022-11-23T16:54:39;256.30;2252.80
54796;DHT22;40693;43.884;20.340;2022-11-23T16:57:05;256.30;2252.80
54796;DHT22;40693;43.884;20.340;2022-11-23T16:59:31;256.30;2252.80
54796;DHT22;40693;43.884;20.340;2022-11-23T17:01:57;256.30;2252.80